TimeCDT,TemperatureF,Dew PointF,Humidity,Sea Level PressureIn,VisibilityMPH,Wind Direction,Wind SpeedMPH,Gust SpeedMPH,PrecipitationIn,Events,Conditions,WindDirDegrees,DateUTC
12:58 AM,72.3,72.3,100,29.93,10.0,ESE,1.2,-,N/A,,Scattered Clouds,110,2013-08-08 05:58:00
1:58 AM,71.1,71.1,100,29.93,10.0,SSE,2.3,-,N/A,,Clear,150,2013-08-08 06:58:00
2:21 AM,71.6,71.6,100,29.94,9.0,ESE,4.6,-,N/A,,Light Drizzle,120,2013-08-08 07:21:00
2:30 AM,71.6,71.6,100,29.94,10.0,ESE,2.3,-,N/A,,Clear,120,2013-08-08 07:30:00
2:58 AM,70.7,70.7,100,29.91,10.0,South,3.5,-,0.00,,Clear,180,2013-08-08 07:58:00
3:58 AM,70.9,70.9,100,29.91,10.0,Calm,Calm,-,N/A,,Clear,0,2013-08-08 08:58:00
4:33 AM,69.8,69.8,100,29.92,1.8,Calm,Calm,-,N/A,,Clear,0,2013-08-08 09:33:00
4:38 AM,69.8,69.8,100,29.92,2.5,Variable,1.2,-,N/A,,Clear,0,2013-08-08 09:38:00
4:43 AM,69.8,69.8,100,29.92,10.0,Variable,4.6,-,N/A,,Clear,0,2013-08-08 09:43:00
4:58 AM,69.4,69.4,100,29.89,10.0,North,3.5,-,N/A,,Clear,350,2013-08-08 09:58:00
5:58 AM,69.8,69.8,100,29.92,10.0,Calm,Calm,-,N/A,,Overcast,0,2013-08-08 10:58:00
6:58 AM,70.3,70.3,100,29.92,10.0,North,4.6,-,N/A,,Scattered Clouds,10,2013-08-08 11:58:00
7:48 AM,69.8,69.8,100,29.96,6.0,North,4.6,-,N/A,,Mostly Cloudy,360,2013-08-08 12:48:00
7:58 AM,70.2,70.2,100,29.95,5.0,Variable,3.5,-,N/A,,Overcast,0,2013-08-08 12:58:00
7:59 AM,69.8,69.8,100,29.97,5.0,NNW,2.3,-,N/A,,Light Drizzle,340,2013-08-08 12:59:00
8:39 AM,69.8,69.8,100,30.01,2.5,South,6.9,-,N/A,Rain,Heavy Rain,170,2013-08-08 13:39:00
8:44 AM,69.8,69.8,100,30.01,1.2,South,6.9,-,N/A,Rain,Heavy Rain,170,2013-08-08 13:44:00
8:55 AM,70.3,70.3,100,29.97,0.5,West,8.1,17.3,N/A,Fog-Rain-Thunderstorm,Heavy Thunderstorms and Rain,270,2013-08-08 13:55:00
9:19 AM,69.8,69.8,100,30.02,0.2,SSW,11.5,-,N/A,Fog-Rain-Thunderstorm,Heavy Thunderstorms and Rain,210,2013-08-08 14:19:00
9:29 AM,69.8,69.8,100,30.03,0.2,WSW,10.4,17.3,N/A,Fog-Rain-Thunderstorm,Heavy Thunderstorms and Rain,250,2013-08-08 14:29:00
9:34 AM,69.8,69.8,100,30.02,0.2,WSW,8.1,17.3,N/A,Fog-Rain-Thunderstorm,Heavy Thunderstorms and Rain,250,2013-08-08 14:34:00
9:39 AM,69.8,69.8,100,30.02,0.5,West,8.1,17.3,N/A,Fog-Rain-Thunderstorm,Heavy Thunderstorms and Rain,270,2013-08-08 14:39:00
9:44 AM,69.8,69.8,100,30.02,1.0,West,8.1,-,N/A,Rain-Thunderstorm,Heavy Thunderstorms and Rain,270,2013-08-08 14:44:00
9:46 AM,69.8,69.8,100,30.02,1.8,West,8.1,-,N/A,Rain-Thunderstorm,Rain,270,2013-08-08 14:46:00
9:51 AM,69.8,69.8,100,30.01,3.0,West,5.8,-,N/A,Rain-Thunderstorm,Rain,260,2013-08-08 14:51:00
9:56 AM,69.8,69.8,100,30.02,4.0,Variable,3.5,-,N/A,Rain,Rain,0,2013-08-08 14:56:00
9:58 AM,69.8,69.8,100,30.01,4.0,Variable,4.6,-,1.66,Rain,Rain,0,2013-08-08 14:58:00
10:13 AM,69.8,69.8,100,30.01,2.5,West,5.8,-,N/A,Rain,Rain,270,2013-08-08 15:13:00
10:23 AM,69.8,69.8,100,30.00,3.0,West,5.8,-,N/A,Rain,Rain,280,2013-08-08 15:23:00
10:58 AM,69.8,32.0,25,29.94,8.0,North,4.6,-,0.12,Rain,Light Rain,360,2013-08-08 15:58:00
11:16 AM,69.8,32.0,25,29.92,10.0,NNE,9.2,-,N/A,,Scattered Clouds,30,2013-08-08 16:16:00
11:17 AM,69.8,32.0,25,29.91,10.0,NNE,10.4,-,N/A,,Light Drizzle,30,2013-08-08 16:17:00
11:39 AM,69.8,69.8,100,29.92,10.0,Variable,2.3,-,N/A,,Scattered Clouds,0,2013-08-08 16:39:00
11:58 AM,71.6,71.6,100,29.91,10.0,Variable,3.5,-,0.00,,Mostly Cloudy,0,2013-08-08 16:58:00
12:03 PM,71.6,71.6,100,29.92,10.0,SW,4.6,-,N/A,,Mostly Cloudy,230,2013-08-08 17:03:00
12:28 PM,75.2,75.2,100,29.92,10.0,SSW,6.9,-,N/A,,Overcast,200,2013-08-08 17:28:00
12:58 PM,75.7,71.8,87,29.90,10.0,Variable,5.8,-,N/A,,Mostly Cloudy,0,2013-08-08 17:58:00
1:18 PM,77.0,71.6,83,29.93,10.0,SW,5.8,-,N/A,,Mostly Cloudy,230,2013-08-08 18:18:00
1:23 PM,77.0,71.6,83,29.93,10.0,Variable,3.5,-,N/A,,Mostly Cloudy,0,2013-08-08 18:23:00
1:38 PM,77.0,69.8,78,29.93,10.0,NW,5.8,-,N/A,,Mostly Cloudy,320,2013-08-08 18:38:00
1:48 PM,78.8,71.6,78,29.93,10.0,NW,3.5,-,N/A,,Mostly Cloudy,320,2013-08-08 18:48:00
1:58 PM,79.0,70.7,76,29.92,10.0,NNW,3.5,-,N/A,,Scattered Clouds,340,2013-08-08 18:58:00
2:08 PM,80.6,73.4,79,29.94,10.0,Variable,2.3,-,N/A,,Mostly Cloudy,0,2013-08-08 19:08:00
2:53 PM,80.6,71.6,74,29.95,10.0,NNW,9.2,-,N/A,,Mostly Cloudy,330,2013-08-08 19:53:00
2:58 PM,80.6,71.1,73,29.93,10.0,NW,6.9,-,N/A,,Mostly Cloudy,320,2013-08-08 19:58:00
3:53 PM,80.6,71.6,74,29.94,10.0,NNE,6.9,-,N/A,,Mostly Cloudy,20,2013-08-08 20:53:00
3:58 PM,80.8,73.0,77,29.92,10.0,NNE,5.8,-,N/A,,Mostly Cloudy,20,2013-08-08 20:58:00
4:18 PM,80.6,73.4,79,29.95,10.0,North,5.8,-,N/A,,Overcast,350,2013-08-08 21:18:00
4:23 PM,80.6,73.4,79,29.95,10.0,North,3.5,-,N/A,,Mostly Cloudy,10,2013-08-08 21:23:00
4:33 PM,80.6,71.6,74,29.95,10.0,NNW,6.9,-,N/A,,Mostly Cloudy,340,2013-08-08 21:33:00
4:38 PM,78.8,71.6,78,29.95,10.0,NNW,8.1,-,N/A,,Mostly Cloudy,330,2013-08-08 21:38:00
4:43 PM,78.8,71.6,78,29.96,10.0,NNW,5.8,-,N/A,,Scattered Clouds,340,2013-08-08 21:43:00
4:58 PM,79.9,72.7,79,29.94,10.0,Variable,6.9,-,N/A,,Scattered Clouds,0,2013-08-08 21:58:00
5:38 PM,80.6,73.4,79,29.96,10.0,NNE,5.8,-,N/A,,Mostly Cloudy,20,2013-08-08 22:38:00
5:43 PM,78.8,73.4,83,29.96,10.0,North,6.9,-,N/A,,Mostly Cloudy,350,2013-08-08 22:43:00
5:58 PM,78.3,72.3,82,29.94,10.0,North,8.1,-,N/A,,Mostly Cloudy,350,2013-08-08 22:58:00
6:58 PM,76.5,72.5,87,29.93,10.0,North,4.6,-,N/A,,Partly Cloudy,350,2013-08-08 23:58:00
6:59 PM,77.0,71.6,83,29.95,10.0,North,4.6,-,N/A,,Light Drizzle,350,2013-08-08 23:59:00
7:08 PM,77.0,73.4,89,29.95,10.0,NNW,4.6,-,N/A,,Scattered Clouds,340,2013-08-09 00:08:00
7:58 PM,74.8,73.2,95,29.93,10.0,NNW,5.8,-,0.00,,Mostly Cloudy,340,2013-08-09 00:58:00
8:58 PM,73.4,72.1,96,29.96,10.0,North,4.6,-,N/A,,Scattered Clouds,360,2013-08-09 01:58:00
9:58 PM,72.7,72.7,100,29.96,10.0,NNE,3.5,-,N/A,,Scattered Clouds,30,2013-08-09 02:58:00
10:48 PM,73.4,73.4,100,30.00,10.0,NE,2.3,-,N/A,,Overcast,40,2013-08-09 03:48:00
10:58 PM,72.9,72.9,100,29.99,10.0,NNE,4.6,-,N/A,,Overcast,30,2013-08-09 03:58:00
11:38 PM,71.6,71.6,100,30.01,10.0,NNE,4.6,-,N/A,,Overcast,20,2013-08-09 04:38:00
11:43 PM,71.6,71.6,100,30.00,10.0,NNE,3.5,-,N/A,,Overcast,30,2013-08-09 04:43:00
11:53 PM,73.4,73.4,100,30.01,10.0,NE,3.5,-,N/A,,Overcast,40,2013-08-09 04:53:00